sensor_id;sensor_type;location;lat;lon;timestamp;pressure;altitude;pressure_sealevel;temperature;humidity
62111;BME280;48102;47.526;19.072;2023-02-01T04:41:26;100377.97;;;3.38;100.00
62111;BME280;48102;47.526;19.072;2023-02-01T04:44:30;100377.97;;;3.38;100.00
62111;BME280;48102;47.526;19.072;2023-02-01T04:47:32;100372.81;;;2.90;100.00
62111;BME280;48102;47.526;19.072;2023-02-01T04:50:35;100376.34;;;2.86;100.00
62111;BME280;48102;47.526;19.072;2023-02-01T04:53:38;100376.16;;;2.97;100.00
62111;BME280;48102;47.526;19.072;2023-02-01T04:56:41;100382.19;;;2.99;100.00
62111;BME280;48102;47.526;19.072;2023-02-01T04:59:44;100381.38;;;2.95;100.00
62111;BME280;48102;47.526;19.072;2023-02-01T05:02:46;100390.91;;;2.96;100.00
62111;BME280;48102;47.526;19.072;2023-02-01T05:05:49;100383.16;;;2.93;100.00
62111;BME280;48102;47.526;19.072;2023-02-01T05:08:52;100389.31;;;2.88;100.00
62111;BME280;48102;47.526;19.072;2023-02-01T05:11:55;100390.13;;;2.91;100.00
62111;BME280;48102;47.526;19.072;2023-02-01T05:15:17;100386.56;;;2.97;100.00
62111;BME280;48102;47.526;19.072;2023-02-01T05:18:20;100374.34;;;3.00;100.00
62111;BME280;48102;47.526;19.072;2023-02-01T05:21:23;100389.06;;;3.03;100.00
62111;BME280;48102;47.526;19.072;2023-02-01T05:24:25;100400.34;;;3.02;100.00
62111;BME280;48102;47.526;19.072;2023-02-01T05:27:30;100402.25;;;2.94;100.00
62111;BME280;48102;47.526;19.072;2023-02-01T05:30:33;100401.44;;;2.90;100.00
62111;BME280;48102;47.526;19.072;2023-02-01T05:33:37;100403.88;;;2.99;100.00
62111;BME280;48102;47.526;19.072;2023-02-01T05:36:40;100401.31;;;2.98;100.00
62111;BME280;48102;47.526;19.072;2023-02-01T05:39:43;100397.72;;;3.04;100.00
62111;BME280;48102;47.526;19.072;2023-02-01T05:42:46;100402.34;;;2.88;100.00
62111;BME280;48102;47.526;19.072;2023-02-01T05:45:49;100394.50;;;2.89;100.00
62111;BME280;48102;47.526;19.072;2023-02-01T05:48:53;100396.34;;;2.83;100.00
62111;BME280;48102;47.526;19.072;2023-02-01T05:51:56;100390.19;;;2.88;100.00
62111;BME280;48102;47.526;19.072;2023-02-01T05:55:04;100413.00;;;2.74;100.00
62111;BME280;48102;47.526;19.072;2023-02-01T05:58:07;100399.34;;;2.60;100.00
62111;BME280;48102;47.526;19.072;2023-02-01T06:01:10;100401.84;;;2.66;100.00
62111;BME280;48102;47.526;19.072;2023-02-01T06:04:13;100400.28;;;2.56;100.00
62111;BME280;48102;47.526;19.072;2023-02-01T06:07:15;100404.53;;;2.61;100.00
62111;BME280;48102;47.526;19.072;2023-02-01T06:10:18;100413.06;;;2.69;100.00
62111;BME280;48102;47.526;19.072;2023-02-01T06:13:21;100413.66;;;2.87;100.00
62111;BME280;48102;47.526;19.072;2023-02-01T06:16:25;100411.84;;;2.90;100.00
62111;BME280;48102;47.526;19.072;2023-02-01T06:19:27;100425.03;;;2.80;100.00
62111;BME280;48102;47.526;19.072;2023-02-01T06:22:31;100438.75;;;2.89;100.00
62111;BME280;48102;47.526;19.072;2023-02-01T06:25:33;100440.47;;;2.90;100.00
62111;BME280;48102;47.526;19.072;2023-02-01T06:28:36;100447.44;;;2.90;100.00
62111;BME280;48102;47.526;19.072;2023-02-01T06:31:41;100441.31;;;2.92;100.00
62111;BME280;48102;47.526;19.072;2023-02-01T06:34:45;100443.69;;;3.05;100.00
62111;BME280;48102;47.526;19.072;2023-02-01T06:37:48;100450.50;;;3.13;100.00
62111;BME280;48102;47.526;19.072;2023-02-01T06:40:55;100459.72;;;3.31;100.00
62111;BME280;48102;47.526;19.072;2023-02-01T06:43:58;100464.09;;;3.29;100.00
62111;BME280;48102;47.526;19.072;2023-02-01T06:47:03;100463.13;;;3.35;100.00
62111;BME280;48102;47.526;19.072;2023-02-01T06:50:05;100456.12;;;3.37;100.00
62111;BME280;48102;47.526;19.072;2023-02-01T06:53:09;100456.00;;;3.44;100.00
62111;BME280;48102;47.526;19.072;2023-02-01T06:56:12;100464.69;;;3.43;100.00
62111;BME280;48102;47.526;19.072;2023-02-01T06:59:15;100467.16;;;3.51;100.00
62111;BME280;48102;47.526;19.072;2023-02-01T07:02:19;100472.06;;;3.66;100.00
62111;BME280;48102;47.526;19.072;2023-02-01T07:05:22;100469.12;;;3.83;100.00
62111;BME280;48102;47.526;19.072;2023-02-01T07:08:27;100457.50;;;3.99;100.00
62111;BME280;48102;47.526;19.072;2023-02-01T07:11:30;100456.56;;;4.03;100.00
62111;BME280;48102;47.526;19.072;2023-02-01T07:14:33;100440.72;;;4.13;100.00
62111;BME280;48102;47.526;19.072;2023-02-01T07:17:36;100452.53;;;4.29;100.00
62111;BME280;48102;47.526;19.072;2023-02-01T07:20:40;100458.28;;;4.43;100.00
62111;BME280;48102;47.526;19.072;2023-02-01T07:23:43;100453.41;;;4.67;100.00
62111;BME280;48102;47.526;19.072;2023-02-01T07:26:46;100454.81;;;4.80;100.00
62111;BME280;48102;47.526;19.072;2023-02-01T07:29:51;100459.50;;;5.01;100.00
62111;BME280;48102;47.526;19.072;2023-02-01T07:32:54;100470.28;;;5.22;100.00
62111;BME280;48102;47.526;19.072;2023-02-01T07:35:57;100466.38;;;5.40;100.00
62111;BME280;48102;47.526;19.072;2023-02-01T07:38:59;100476.69;;;5.44;100.00
62111;BME280;48102;47.526;19.072;2023-02-01T07:42:02;100475.59;;;5.53;100.00
62111;BME280;48102;47.526;19.072;2023-02-01T07:45:06;100469.12;;;5.66;100.00
62111;BME280;48102;47.526;19.072;2023-02-01T07:48:24;100473.19;;;5.76;97.17
62111;BME280;48102;47.526;19.072;2023-02-01T07:51:27;100482.22;;;5.97;97.91
62111;BME280;48102;47.526;19.072;2023-02-01T07:54:30;100471.31;;;6.13;91.59
62111;BME280;48102;47.526;19.072;2023-02-01T07:57:33;100473.53;;;6.26;89.72
62111;BME280;48102;47.526;19.072;2023-02-01T08:00:36;100475.53;;;6.46;90.29
62111;BME280;48102;47.526;19.072;2023-02-01T08:03:59;100460.34;;;6.58;88.15
62111;BME280;48102;47.526;19.072;2023-02-01T08:07:02;100479.59;;;6.57;86.22
62111;BME280;48102;47.526;19.072;2023-02-01T08:10:05;100470.28;;;6.46;87.40
62111;BME280;48102;47.526;19.072;2023-02-01T08:13:12;100480.13;;;6.40;90.15
62111;BME280;48102;47.526;19.072;2023-02-01T08:16:17;100497.31;;;6.17;90.55
62111;BME280;48102;47.526;19.072;2023-02-01T08:19:22;100495.47;;;5.90;94.84
62111;BME280;48102;47.526;19.072;2023-02-01T08:22:25;100494.37;;;5.67;96.74
62111;BME280;48102;47.526;19.072;2023-02-01T08:25:28;100505.19;;;5.53;98.02
62111;BME280;48102;47.526;19.072;2023-02-01T08:28:31;100518.81;;;5.66;96.43
62111;BME280;48102;47.526;19.072;2023-02-01T08:31:34;100519.06;;;5.56;96.64
62111;BME280;48102;47.526;19.072;2023-02-01T08:34:37;100531.16;;;5.60;96.55
62111;BME280;48102;47.526;19.072;2023-02-01T08:37:40;100537.91;;;5.68;95.45
62111;BME280;48102;47.526;19.072;2023-02-01T08:40:43;100542.03;;;5.77;93.16
62111;BME280;48102;47.526;19.072;2023-02-01T08:43:46;100532.47;;;5.76;93.45
62111;BME280;48102;47.526;19.072;2023-02-01T08:46:50;100542.88;;;5.79;95.03
62111;BME280;48102;47.526;19.072;2023-02-01T08:49:53;100532.22;;;5.85;92.12
62111;BME280;48102;47.526;19.072;2023-02-01T08:52:56;100532.00;;;5.94;92.82
62111;BME280;48102;47.526;19.072;2023-02-01T08:55:59;100531.75;;;5.71;94.09
62111;BME280;48102;47.526;19.072;2023-02-01T08:59:02;100532.00;;;5.62;94.28
62111;BME280;48102;47.526;19.072;2023-02-01T09:02:04;100523.66;;;5.78;93.97
62111;BME280;48102;47.526;19.072;2023-02-01T09:05:07;100515.63;;;5.86;92.74
62111;BME280;48102;47.526;19.072;2023-02-01T09:08:13;100514.84;;;5.83;93.83
62111;BME280;48102;47.526;19.072;2023-02-01T09:11:18;100519.41;;;5.76;94.78
62111;BME280;48102;47.526;19.072;2023-02-01T09:14:24;100516.72;;;5.77;95.38
62111;BME280;48102;47.526;19.072;2023-02-01T09:17:27;100506.66;;;6.27;94.19
62111;BME280;48102;47.526;19.072;2023-02-01T09:20:37;100500.47;;;6.86;89.91
62111;BME280;48102;47.526;19.072;2023-02-01T09:23:40;100513.34;;;7.45;86.07
62111;BME280;48102;47.526;19.072;2023-02-01T09:26:42;100521.72;;;7.57;82.36
62111;BME280;48102;47.526;19.072;2023-02-01T09:29:46;100516.34;;;7.85;81.82
62111;BME280;48102;47.526;19.072;2023-02-01T09:32:54;100509.72;;;7.99;80.64
62111;BME280;48102;47.526;19.072;2023-02-01T09:35:58;100491.84;;;8.09;78.96
62111;BME280;48102;47.526;19.072;2023-02-01T09:39:02;100505.03;;;8.54;78.30
62111;BME280;48102;47.526;19.072;2023-02-01T09:45:20;100529.00;;;8.69;82.10
62111;BME280;48102;47.526;19.072;2023-02-01T09:48:31;100521.63;;;8.08;86.54
62111;BME280;48102;47.526;19.072;2023-02-01T09:51:42;100515.03;;;7.48;87.11
62111;BME280;48102;47.526;19.072;2023-02-01T09:54:51;100509.50;;;7.04;94.22
62111;BME280;48102;47.526;19.072;2023-02-01T09:58:11;100503.56;;;6.71;100.00
62111;BME280;48102;47.526;19.072;2023-02-01T10:01:21;100510.19;;;6.54;99.50
62111;BME280;48102;47.526;19.072;2023-02-01T10:04:26;100506.75;;;6.81;96.62
62111;BME280;48102;47.526;19.072;2023-02-01T10:07:47;100481.88;;;6.94;92.65
62111;BME280;48102;47.526;19.072;2023-02-01T10:11:21;100484.66;;;7.16;92.09
62111;BME280;48102;47.526;19.072;2023-02-01T10:18:17;100478.03;;;8.04;83.78
62111;BME280;48102;47.526;19.072;2023-02-01T10:21:36;100460.22;;;7.89;85.11
62111;BME280;48102;47.526;19.072;2023-02-01T10:24:51;100460.63;;;8.25;84.00
62111;BME280;48102;47.526;19.072;2023-02-01T10:28:01;100444.00;;;8.24;79.21
62111;BME280;48102;47.526;19.072;2023-02-01T10:31:08;100444.31;;;7.93;83.90
62111;BME280;48102;47.526;19.072;2023-02-01T10:34:29;100449.66;;;7.43;85.72
62111;BME280;48102;47.526;19.072;2023-02-01T10:37:35;100444.44;;;7.42;89.18
62111;BME280;48102;47.526;19.072;2023-02-01T10:40:38;100443.72;;;7.87;87.80
62111;BME280;48102;47.526;19.072;2023-02-01T10:43:41;100445.91;;;8.21;87.18
62111;BME280;48102;47.526;19.072;2023-02-01T10:46:44;100452.12;;;8.42;84.54
62111;BME280;48102;47.526;19.072;2023-02-01T10:53:15;100452.34;;;8.36;82.28
62111;BME280;48102;47.526;19.072;2023-02-01T10:56:25;100443.19;;;8.46;85.17
62111;BME280;48102;47.526;19.072;2023-02-01T10:59:29;100436.50;;;8.61;83.49
62111;BME280;48102;47.526;19.072;2023-02-01T11:02:36;100433.53;;;9.11;80.91
62111;BME280;48102;47.526;19.072;2023-02-01T11:05:45;100427.37;;;9.52;77.33
62111;BME280;48102;47.526;19.072;2023-02-01T11:08:51;100414.19;;;9.73;73.79
62111;BME280;48102;47.526;19.072;2023-02-01T11:11:57;100422.84;;;9.56;72.95
62111;BME280;48102;47.526;19.072;2023-02-01T11:18:27;100409.78;;;9.34;71.29
62111;BME280;48102;47.526;19.072;2023-02-01T11:21:32;100409.44;;;9.21;76.27
62111;BME280;48102;47.526;19.072;2023-02-01T11:24:35;100398.72;;;8.85;77.49
62111;BME280;48102;47.526;19.072;2023-02-01T11:27:44;100391.00;;;8.15;84.43
62111;BME280;48102;47.526;19.072;2023-02-01T11:30:59;100403.94;;;7.97;90.61
62111;BME280;48102;47.526;19.072;2023-02-01T11:34:11;100396.56;;;8.07;95.13
62111;BME280;48102;47.526;19.072;2023-02-01T11:37:21;100388.38;;;7.69;100.00
62111;BME280;48102;47.526;19.072;2023-02-01T11:40:34;100406.34;;;7.07;100.00
62111;BME280;48102;47.526;19.072;2023-02-01T11:43:37;100408.12;;;6.25;100.00
62111;BME280;48102;47.526;19.072;2023-02-01T11:46:40;100397.50;;;5.72;100.00
62111;BME280;48102;47.526;19.072;2023-02-01T11:49:43;100400.25;;;5.36;100.00
62111;BME280;48102;47.526;19.072;2023-02-01T11:56:28;100386.22;;;4.75;100.00
62111;BME280;48102;47.526;19.072;2023-02-01T12:11:17;100359.81;;;4.86;100.00
62111;BME280;48102;47.526;19.072;2023-02-01T12:31:33;100373.25;;;4.35;100.00
62111;BME280;48102;47.526;19.072;2023-02-01T12:47:52;100398.38;;;3.60;100.00
62111;BME280;48102;47.526;19.072;2023-02-01T12:51:00;100392.56;;;3.47;100.00
62111;BME280;48102;47.526;19.072;2023-02-01T12:57:49;100364.91;;;3.41;100.00
62111;BME280;48102;47.526;19.072;2023-02-01T13:01:03;100362.09;;;3.50;100.00
62111;BME280;48102;47.526;19.072;2023-02-01T13:07:20;100341.78;;;3.66;100.00
62111;BME280;48102;47.526;19.072;2023-02-01T13:10:38;100324.53;;;3.99;100.00
62111;BME280;48102;47.526;19.072;2023-02-01T13:14:22;100316.59;;;4.75;100.00
62111;BME280;48102;47.526;19.072;2023-02-01T13:17:24;100305.19;;;5.09;100.00
62111;BME280;48102;47.526;19.072;2023-02-01T13:23:38;100285.59;;;4.62;100.00
62111;BME280;48102;47.526;19.072;2023-02-01T13:26:42;100266.38;;;4.32;100.00
62111;BME280;48102;47.526;19.072;2023-02-01T13:29:47;100264.06;;;4.21;100.00
62111;BME280;48102;47.526;19.072;2023-02-01T13:33:10;100252.03;;;4.14;100.00
62111;BME280;48102;47.526;19.072;2023-02-01T13:43:00;100287.87;;;4.06;100.00
62111;BME280;48102;47.526;19.072;2023-02-01T13:46:06;100306.47;;;3.92;100.00
62111;BME280;48102;47.526;19.072;2023-02-01T13:49:32;100312.63;;;3.88;100.00
62111;BME280;48102;47.526;19.072;2023-02-01T13:52:43;100305.97;;;3.74;100.00
62111;BME280;48102;47.526;19.072;2023-02-01T13:56:01;100306.94;;;3.70;100.00
62111;BME280;48102;47.526;19.072;2023-02-01T13:59:48;100313.00;;;3.72;100.00
62111;BME280;48102;47.526;19.072;2023-02-01T14:06:16;100291.25;;;3.73;100.00
62111;BME280;48102;47.526;19.072;2023-02-01T14:09:32;100276.59;;;4.41;100.00
62111;BME280;48102;47.526;19.072;2023-02-01T14:19:18;100294.00;;;6.74;100.00
62111;BME280;48102;47.526;19.072;2023-02-01T14:25:32;100295.97;;;7.16;100.00
62111;BME280;48102;47.526;19.072;2023-02-01T14:28:39;100319.63;;;6.38;100.00
62111;BME280;48102;47.526;19.072;2023-02-01T14:32:19;100339.00;;;5.76;100.00
62111;BME280;48102;47.526;19.072;2023-02-01T14:35:26;100336.97;;;5.25;100.00
62111;BME280;48102;47.526;19.072;2023-02-01T14:38:31;100334.31;;;5.58;100.00
62111;BME280;48102;47.526;19.072;2023-02-01T14:41:35;100330.78;;;5.59;100.00
62111;BME280;48102;47.526;19.072;2023-02-01T14:44:38;100320.59;;;5.20;100.00
62111;BME280;48102;47.526;19.072;2023-02-01T14:51:11;100336.59;;;5.08;100.00
62111;BME280;48102;47.526;19.072;2023-02-01T14:54:15;100335.63;;;5.12;100.00
62111;BME280;48102;47.526;19.072;2023-02-01T14:57:25;100330.44;;;5.10;100.00
62111;BME280;48102;47.526;19.072;2023-02-01T15:00:30;100332.53;;;4.97;100.00
62111;BME280;48102;47.526;19.072;2023-02-01T15:03:45;100326.59;;;4.92;100.00
62111;BME280;48102;47.526;19.072;2023-02-01T15:06:58;100330.03;;;4.93;100.00
62111;BME280;48102;47.526;19.072;2023-02-01T15:10:09;100323.97;;;4.92;100.00
62111;BME280;48102;47.526;19.072;2023-02-01T15:13:26;100321.63;;;4.82;100.00
62111;BME280;48102;47.526;19.072;2023-02-01T15:16:29;100314.25;;;4.65;100.00
62111;BME280;48102;47.526;19.072;2023-02-01T15:19:32;100329.34;;;4.53;100.00
62111;BME280;48102;47.526;19.072;2023-02-01T15:22:35;100319.94;;;4.46;100.00
62111;BME280;48102;47.526;19.072;2023-02-01T15:25:38;100300.94;;;4.41;100.00
62111;BME280;48102;47.526;19.072;2023-02-01T15:28:41;100298.47;;;4.35;100.00
62111;BME280;48102;47.526;19.072;2023-02-01T15:31:50;100302.81;;;4.35;100.00
62111;BME280;48102;47.526;19.072;2023-02-01T15:34:54;100297.03;;;4.23;100.00
62111;BME280;48102;47.526;19.072;2023-02-01T15:38:19;100297.34;;;4.10;100.00
62111;BME280;48102;47.526;19.072;2023-02-01T15:41:29;100307.34;;;3.91;100.00
62111;BME280;48102;47.526;19.072;2023-02-01T15:44:38;100304.13;;;3.81;100.00
62111;BME280;48102;47.526;19.072;2023-02-01T15:47:50;100303.97;;;3.87;100.00
62111;BME280;48102;47.526;19.072;2023-02-01T15:50:54;100302.31;;;3.85;100.00
62111;BME280;48102;47.526;19.072;2023-02-01T15:57:05;100313.97;;;3.67;100.00
62111;BME280;48102;47.526;19.072;2023-02-01T16:00:28;100311.19;;;3.76;100.00
62111;BME280;48102;47.526;19.072;2023-02-01T16:03:41;100313.62;;;3.82;100.00
62111;BME280;48102;47.526;19.072;2023-02-01T16:06:47;100315.75;;;4.03;100.00
62111;BME280;48102;47.526;19.072;2023-02-01T16:09:54;100339.22;;;4.03;100.00
62111;BME280;48102;47.526;19.072;2023-02-01T16:12:57;100339.06;;;4.10;100.00
62111;BME280;48102;47.526;19.072;2023-02-01T16:16:03;100357.41;;;4.07;100.00
62111;BME280;48102;47.526;19.072;2023-02-01T16:19:10;100338.37;;;4.01;100.00
62111;BME280;48102;47.526;19.072;2023-02-01T16:22:13;100351.72;;;3.89;100.00
62111;BME280;48102;47.526;19.072;2023-02-01T16:25:16;100330.03;;;3.87;100.00
62111;BME280;48102;47.526;19.072;2023-02-01T16:28:19;100329.44;;;3.76;100.00
62111;BME280;48102;47.526;19.072;2023-02-01T16:31:29;100326.84;;;3.74;100.00
62111;BME280;48102;47.526;19.072;2023-02-01T16:34:33;100354.00;;;3.64;100.00
62111;BME280;48102;47.526;19.072;2023-02-01T16:37:37;100331.41;;;3.65;100.00
62111;BME280;48102;47.526;19.072;2023-02-01T16:40:41;100334.06;;;3.62;100.00
62111;BME280;48102;47.526;19.072;2023-02-01T16:43:44;100327.19;;;3.59;100.00
62111;BME280;48102;47.526;19.072;2023-02-01T16:46:48;100319.28;;;3.62;100.00
62111;BME280;48102;47.526;19.072;2023-02-01T16:49:51;100324.31;;;3.71;100.00
62111;BME280;48102;47.526;19.072;2023-02-01T16:52:54;100312.03;;;3.76;100.00
62111;BME280;48102;47.526;19.072;2023-02-01T16:55:58;100326.22;;;3.63;100.00
62111;BME280;48102;47.526;19.072;2023-02-01T16:59:01;100337.53;;;3.62;100.00
62111;BME280;48102;47.526;19.072;2023-02-01T17:02:04;100313.47;;;3.49;100.00
62111;BME280;48102;47.526;19.072;2023-02-01T17:05:08;100315.13;;;3.53;100.00
62111;BME280;48102;47.526;19.072;2023-02-01T17:08:22;100307.50;;;3.44;100.00
62111;BME280;48102;47.526;19.072;2023-02-01T17:11:28;100301.13;;;3.59;100.00
